UNR Ag. Experiment Farm, Sparks, Nevada Weather observations

Data are for 10 minute period ending at time listed.
 Day   Time   Solar   Ave.   Ave.  Ave.  Vector  Max.   Baro.   Total    
  of    of     Rad.   Air    Rel.  Wind   Wind   Wind  Press.  Precip.   
Year   Day            Temp.  Hum.  Speed  Dir.   Gust                    
2026   (PST)  Kw/m2    F      %     mph   deg.    mph    mb.     in.     
-------------------------------------------------------------------------
 128   15:20   0.77   78.7    19    9.7   320    15.7   866.3    0.00 
 128   15:30   0.74   78.1    16    7.9   308    14.0   866.2    0.00 
 128   15:40   0.71   79.1    16    7.5   300    13.7   866.2    0.00 
 128   15:50   0.67   78.0    15    8.7   312    14.9   866.2    0.00 
 128   16:00   0.64   78.8    15    7.6   307    15.3   866.2    0.00 
 128   16:10   0.60   78.3    15    9.9   311    15.4   866.2    0.00 
 128   16:20   0.56   78.2    15    7.0   294    13.2   866.2    0.00 
 128   16:30   0.53   77.7    16   10.6   310    19.5   866.2    0.00 
 128   16:40   0.49   76.3    18   12.3   333    21.3   866.2    0.00 
 128   16:50   0.45   76.3    18   10.9   324    18.1   866.1    0.00 
 128   17:00   0.41   75.9    18   12.3   332    17.3   866.1    0.00 
 128   17:10   0.38   75.4    19   10.4   333    14.5   866.1    0.00 
 128   17:20   0.34   75.4    19   10.3   324    15.0   866.1    0.00 
 128   17:30   0.31   75.4    20    8.2   328    14.4   866.1    0.00 
 128   17:40   0.27   74.7    21    9.3   330    13.0   866.1    0.00 
 128   17:50   0.24   74.1    20    9.7   333    12.5   866.1    0.00 
 128   18:00   0.21   74.2    20   10.2   320    14.9   866.2    0.00 
 128   18:10   0.17   74.0    20    9.6   323    14.5   866.3    0.00 
 128   18:20   0.14   72.9    23    6.8   316    12.1   866.3    0.00 
 128   18:30   0.11   72.0    23    7.6   310    11.7   866.3    0.00 
 128   18:40   0.08   71.9    23    7.4   310    10.7   866.4    0.00 
 128   18:50   0.04   70.7    25    6.0   309     9.6   866.5    0.00 
 128   19:00   0.01   69.6    26    5.7   314     9.0   866.6    0.00 
 128   19:10   0.00   69.4    26    6.4   303    11.1   866.7    0.00 
 128   19:20   0.00   69.6    25    5.9   280     9.2   866.7    0.00 
 128   19:30   0.00   69.3    27    6.3   274     8.5   866.8    0.00 
 128   19:40   0.00   69.0    28    6.9   283    10.8   867.0    0.00 
 128   19:50   0.00   68.5    28    6.3   287     9.0   867.1    0.00 
 128   20:00   0.00   67.8    30    5.7   289     8.7   867.2    0.00 
 128   20:10   0.00   67.2    32    5.4   304     7.7   867.2    0.00 
 128   20:20   0.00   66.0    34    3.5   320     6.6   867.2    0.00 
 128   20:30   0.00   65.1    35    3.0    13     9.2   867.3    0.00 
 128   20:40   0.00   61.5    40    2.5    65     3.6   867.4    0.00 
 128   20:50   0.00   61.7    38    2.7    66     4.4   867.6    0.00 
 128   21:00   0.00   60.5    42    1.5    99     2.9   867.7    0.00 
 128   21:10   0.00   58.8    46    0.4   295     1.8   867.8    0.00 
 128   21:20   0.00   59.2    46    0.6   335     2.1   867.9    0.00 
 128   21:30   0.00   58.7    47    1.3   348     2.2   868.0    0.00 
 128   21:40   0.00   59.6    45    2.8    21     3.8   868.1    0.00 
 128   21:50   0.00   60.0    47    3.9     4     5.3   868.2    0.00 
 128   22:00   0.00   59.2    52    4.2     8     6.4   868.2    0.00 
 128   22:10   0.00   60.8    48    4.2     8     6.1   868.2    0.00 
 128   22:20   0.00   62.3    43    4.3    46     5.4   868.2    0.00 
 128   22:30   0.00   59.6    49    2.8   230     4.9   868.2    0.00 
 128   22:40   0.00   58.7    50    0.3   138     1.7   868.3    0.00 
 128   22:50   0.00   59.0    51    0.5   291     2.8   868.3    0.00 
 128   23:00   0.00   57.7    56    0.6    66     1.7   868.3    0.00 
 128   23:10   0.00   55.6    58    1.4   127     2.5   868.3    0.00 
 128   23:20   0.00   53.1    60    1.3   219     2.4   868.3    0.00 
 128   23:30   0.00   54.7    57    0.3   231     1.2   868.2    0.00 
 128   23:40   0.00   53.8    62    2.2   225     3.4   868.2    0.00 
 128   23:50   0.00   53.5    64    3.0   201     3.9   868.3    0.00 
 129    0:00   0.00   53.4    62    1.9   166     2.9   868.3    0.00 
 129    0:10   0.00   54.3    65    2.6   148     3.2   868.4    0.00 
 129    0:20   0.00   52.7    68    3.4   151     3.9   868.4    0.00 
 129    0:30   0.00   53.9    61    3.3   154     4.0   868.4    0.00 
 129    0:40   0.00   52.7    65    3.7   166     4.5   868.4    0.00 
 129    0:50   0.00   49.7    75    3.5   156     4.6   868.4    0.00 
 129    1:00   0.00   48.9    78    2.6   173     3.8   868.4    0.00 
 129    1:10   0.00   48.9    77    2.2   210     2.8   868.5    0.00 
 129    1:20   0.00   49.5    71    3.2   228     4.3   868.5    0.00 
 129    1:30   0.00   50.6    65    2.3   224     3.4   868.5    0.00 
 129    1:40   0.00   48.6    72    4.0   155     5.1   868.6    0.00 
 129    1:50   0.00   49.0    72    2.6   162     3.2   868.6    0.00 
 129    2:00   0.00   48.5    74    3.9   163     5.4   868.7    0.00 
 129    2:10   0.00   48.1    74    2.8   162     3.6   868.7    0.00 
 129    2:20   0.00   47.0    80    2.8   135     4.2   868.7    0.00 
 129    2:30   0.00   47.7    77    1.4   211     2.3   868.7    0.00 
 129    2:40   0.00   46.6    79    0.4   182     1.5   868.7    0.00 
 129    2:50   0.00   46.9    78    1.4   187     2.0   868.8    0.00 
 129    3:00   0.00   46.9    78    1.7   224     2.8   868.8    0.00 
 129    3:10   0.00   46.4    77    1.4   226     2.3   868.8    0.00 
 129    3:20   0.00   45.1    81    1.6   202     2.3   868.8    0.00 
 129    3:30   0.00   46.3    80    1.8   169     2.6   869.0    0.00 
 129    3:40   0.00   46.5    80    2.8   171     3.5   869.0    0.00 
 129    3:50   0.00   46.2    83    1.5   175     2.9   869.1    0.00 
 129    4:00   0.00   44.6    85    1.0   184     1.5   869.0    0.00 
 129    4:10   0.00   44.6    86    2.4   167     4.3   869.1    0.00 
 129    4:20   0.00   43.1    87    2.1   174     3.8   869.1    0.00 
 129    4:30   0.00   43.0    87    1.2   184     2.3   869.1    0.00 
 129    4:40   0.00   42.7    89    0.0     0     0.0   869.2    0.00 
 129    4:50   0.00   42.5    92    0.0     0     0.0   869.3    0.00 
 129    5:00   0.00   42.7    91    0.0   141     0.5   869.3    0.00 
 129    5:10   0.01   42.5    93    0.2   139     1.1   869.4    0.00 
 129    5:20   0.04   43.8    94    0.8   349     1.4   869.5    0.00 
 129    5:30   0.08   44.5    90    1.1   102     2.6   869.6    0.00 
 129    5:40   0.11   43.4    89    1.6   112     2.8   869.7    0.00 
 129    5:50   0.14   44.9    91    2.0   131     2.9   869.7    0.00 
 129    6:00   0.17   47.2    89    1.0   144     2.5   869.8    0.00 
 129    6:10   0.21   49.3    84    0.1   279     0.9   869.9    0.00 
 129    6:20   0.24   51.6    79    0.0     0     0.0   870.0    0.00 
 129    6:30   0.28   54.2    66    0.8   142     1.8   870.0    0.00 
 129    6:40   0.31   55.7    60    0.9   142     2.8   870.0    0.00 
 129    6:50   0.35   57.5    56    0.9   110     2.1   870.0    0.00 
 129    7:00   0.39   59.3    52    0.2   356     1.1   870.0    0.00 
 129    7:10   0.42   60.1    51    0.4   279     1.1   870.0    0.00 
 129    7:20   0.46   60.7    48    0.6   210     1.9   870.1    0.00 
 129    7:30   0.48   61.5    43    0.1   302     0.8   870.1    0.00 
 129    7:40   0.53   62.2    44    0.9   342     2.8   870.1    0.00 
 129    7:50   0.57   62.9    43    1.0   302     2.5   870.1    0.00 
 129    8:00   0.61   62.8    43    1.0   306     2.1   870.1    0.00 
 129    8:10   0.64   63.7    40    1.0   326     2.3   870.1    0.00 
 129    8:20   0.68   64.9    38    1.1   359     3.1   870.0    0.00 
 129    8:30   0.71   65.7    34    1.2   357     3.3   870.0    0.00 
 129    8:40   0.75   66.2    36    1.4     2     3.8   869.9    0.00 
 129    8:50   0.78   67.2    34    2.2     9     4.1   869.9    0.00 
 129    9:00   0.81   68.4    31    1.6    45     3.9   869.9    0.00 
 129    9:10   0.84   68.8    29    1.6   353     5.1   869.9    0.00 
 129    9:20   0.87   69.2    28    1.8   320     4.7   869.8    0.00 
 129    9:30   0.90   69.5    27    2.8   289     4.6   869.7    0.00 
 129    9:40   0.92   70.1    25    2.4    16     5.0   869.6    0.00 
 129    9:50   0.95   71.3    24    3.9   331     8.9   869.6    0.00 
 129   10:00   0.97   72.0    24    6.3    37    10.5   869.5    0.00 
 129   10:10   0.99   72.0    24    5.1    14    10.0   869.4    0.00 
 129   10:20   1.01   73.3    20    4.5    86     9.7   869.4    0.00 
 129   10:30   1.03   74.1    20    3.0    18     6.8   869.4    0.00 
 129   10:40   1.05   74.1    20    2.9    54     7.4   869.2    0.00 
 129   10:50   1.06   74.4    22    2.7   328     6.2   869.1    0.00 
 129   11:00   1.07   75.2    20    4.6   103     9.9   869.0    0.00 
 129   11:10   1.08   74.7    19    3.9   240    11.9   868.9    0.00 
 129   11:20   1.09   75.8    20    3.5   214     7.4   868.8    0.00 
 129   11:30   1.10   75.5    19    5.5   230    12.2   868.7    0.00 
 129   11:40   1.10   75.6    20    4.8   300    11.0   868.6    0.00 
 129   11:50   1.11   75.4    18    3.8   321     7.8   868.5    0.00 
 129   12:00   1.11   76.3    20    4.0   288     7.8   868.3    0.00 
 129   12:10   1.11   77.1    19    3.7   268     8.3   868.1    0.00 
 129   12:20   1.11   77.2    18    3.8   183     9.3   868.0    0.00 
 129   12:30   1.11   77.8    16    6.1   116    10.8   868.0    0.00 
 129   12:40   1.10   78.2    14    2.7     4     6.4   868.0    0.00 
 129   12:50   1.09   79.1    15    1.9   205     6.9   867.9    0.00 
 129   13:00   1.08   79.0    16    4.5   195    10.9   867.7    0.00 
 129   13:10   1.07   79.3    16    4.4   214     9.9   867.6    0.00 
 129   13:20   1.06   79.4    16    5.6   126    13.3   867.6    0.00 
 129   13:30   1.04   79.9    15    7.4   122    12.4   867.5    0.00 
 129   13:40   1.03   79.9    14    3.3    45     7.8   867.4    0.00 
 129   13:50   1.01   80.0    16    5.2   114    11.0   867.3    0.00 
 129   14:00   0.99   80.1    15    7.7   154    17.4   867.3    0.00 
 129   14:10   0.96   80.0    14    7.0    90    16.4   867.2    0.00 
 129   14:20   0.94   80.8    12    2.1   298     5.6   867.1    0.00 
 129   14:30   0.92   80.7    15    4.2   122     8.9   867.0    0.00 
 129   14:40   0.89   81.3    14    4.5   157     9.7   866.8    0.00 
 129   14:50   0.86   81.3    12    2.5   172     7.5   866.6    0.00 
 129   15:00   0.82   81.7    15    4.6    44     7.6   866.5    0.00 
 129   15:10   0.80   81.2    13    2.3     8     6.7   866.4    0.00 

Return to Sparks, Nevada, UNR Ag Experiment Farm graphs page.


Western Regional Climate Center,wrcc@dri.edu